Time,TemperatureF,DewpointF,PressureIn,WindDirection,WindDirectionDegrees,WindSpeedMPH,WindSpeedGustMPH,Humidity,HourlyPrecipIn,Conditions,Clouds,dailyrainin,SolarRadiationWatts/m^2,SoftwareType,DateUTC
2016-07-23 00:02:00,70.3,35.6,29.94,SSE,148,0.0,0.0,28,0.00,,,0.00,0,Wunderground v.1.15,2016-07-23 05:02:00,
2016-07-23 00:07:00,70.2,36.4,29.95,SSE,148,0.0,0.0,29,0.00,,,0.00,0,Wunderground v.1.15,2016-07-23 05:07:00,
2016-07-23 00:13:00,70.0,38.0,29.95,SSE,148,0.0,0.0,31,0.00,,,0.00,0,Wunderground v.1.15,2016-07-23 05:13:00,
2016-07-23 00:18:00,69.8,38.6,29.94,SSE,148,0.0,0.0,32,0.00,,,0.00,0,Wunderground v.1.15,2016-07-23 05:18:00,
2016-07-23 00:24:00,69.8,38.6,29.95,SSE,148,0.0,0.0,32,0.00,,,0.00,0,Wunderground v.1.15,2016-07-23 05:24:00,
2016-07-23 00:30:00,69.6,40.7,29.94,SSE,148,0.0,0.0,35,0.00,,,0.00,0,Wunderground v.1.15,2016-07-23 05:30:00,
2016-07-23 00:36:00,69.7,41.5,29.95,SSE,148,0.0,0.0,36,0.00,,,0.00,0,Wunderground v.1.15,2016-07-23 05:36:00,
2016-07-23 00:41:00,69.8,40.9,29.96,SSE,148,0.0,0.0,35,0.00,,,0.00,0,Wunderground v.1.15,2016-07-23 05:41:00,
2016-07-23 00:47:00,69.7,40.8,29.96,SSE,148,0.0,0.0,35,0.00,,,0.00,0,Wunderground v.1.15,2016-07-23 05:47:00,
2016-07-23 00:53:00,69.6,40.0,29.95,SSE,148,0.0,0.0,34,0.00,,,0.00,0,Wunderground v.1.15,2016-07-23 05:53:00,
2016-07-23 00:58:00,69.4,39.8,29.95,SSE,148,0.0,0.0,34,0.00,,,0.00,0,Wunderground v.1.15,2016-07-23 05:58:00,
2016-07-23 01:04:00,69.2,40.4,29.96,SSE,148,0.0,0.0,35,0.00,,,0.00,0,Wunderground v.1.15,2016-07-23 06:04:00,
2016-07-23 01:09:00,69.1,41.0,29.95,SSE,148,0.0,0.0,36,0.00,,,0.00,0,Wunderground v.1.15,2016-07-23 06:09:00,
2016-07-23 01:14:00,69.0,42.3,29.97,SSE,148,0.0,0.0,38,0.00,,,0.00,0,Wunderground v.1.15,2016-07-23 06:14:00,
2016-07-23 01:20:00,68.8,42.1,29.96,SSE,148,0.0,0.0,38,0.00,,,0.00,0,Wunderground v.1.15,2016-07-23 06:20:00,
2016-07-23 01:26:00,68.9,43.6,29.97,SSE,148,0.0,0.0,40,0.00,,,0.00,0,Wunderground v.1.15,2016-07-23 06:26:00,
2016-07-23 01:32:00,68.9,44.2,29.96,SSE,148,0.0,0.0,41,0.00,,,0.00,0,Wunderground v.1.15,2016-07-23 06:32:00,
2016-07-23 01:38:00,69.0,44.3,29.96,SSE,148,0.0,0.0,41,0.00,,,0.00,0,Wunderground v.1.15,2016-07-23 06:38:00,
2016-07-23 01:43:00,69.1,45.0,29.95,SSE,148,0.0,0.0,42,0.00,,,0.00,0,Wunderground v.1.15,2016-07-23 06:43:00,
2016-07-23 01:49:00,69.3,47.0,29.95,SSE,148,0.0,0.0,45,0.00,,,0.00,0,Wunderground v.1.15,2016-07-23 06:49:00,
2016-07-23 01:55:00,69.5,52.1,29.94,SSE,148,0.0,0.0,54,0.00,,,0.00,0,Wunderground v.1.15,2016-07-23 06:55:00,
2016-07-23 02:01:00,69.7,53.3,29.94,SSE,148,0.0,0.0,56,0.00,,,0.00,0,Wunderground v.1.15,2016-07-23 07:01:00,
2016-07-23 02:11:00,69.7,51.8,29.95,SSE,148,0.0,0.0,53,0.00,,,0.00,0,Wunderground v.1.15,2016-07-23 07:11:00,
2016-07-23 02:16:00,70.0,51.6,29.94,SSE,148,0.0,0.0,52,0.00,,,0.00,0,Wunderground v.1.15,2016-07-23 07:16:00,
2016-07-23 02:21:00,70.3,50.2,29.94,SSE,148,0.0,0.0,49,0.00,,,0.00,0,Wunderground v.1.15,2016-07-23 07:21:00,
2016-07-23 02:26:00,70.6,49.4,29.94,SSE,148,0.0,0.0,47,0.00,,,0.00,0,Wunderground v.1.15,2016-07-23 07:26:00,
2016-07-23 02:31:00,70.6,47.6,29.94,SSE,148,0.0,0.0,44,0.00,,,0.00,0,Wunderground v.1.15,2016-07-23 07:31:00,
2016-07-23 02:36:00,70.9,47.9,29.93,SSE,148,0.0,0.0,44,0.00,,,0.00,0,Wunderground v.1.15,2016-07-23 07:36:00,
2016-07-23 02:41:00,70.9,47.3,29.93,SSE,148,0.0,0.0,43,0.00,,,0.00,0,Wunderground v.1.15,2016-07-23 07:41:00,
2016-07-23 02:46:00,70.7,46.5,29.93,SSE,148,0.0,0.0,42,0.00,,,0.00,0,Wunderground v.1.15,2016-07-23 07:46:00,
2016-07-23 02:51:00,70.6,45.7,29.93,SSE,148,0.0,0.0,41,0.00,,,0.00,0,Wunderground v.1.15,2016-07-23 07:51:00,
2016-07-23 02:56:00,70.6,45.1,29.93,SSE,148,0.0,0.0,40,0.00,,,0.00,0,Wunderground v.1.15,2016-07-23 07:56:00,
2016-07-23 03:01:00,70.7,45.2,29.93,SSE,148,0.0,0.0,40,0.00,,,0.00,0,Wunderground v.1.15,2016-07-23 08:01:00,
2016-07-23 03:06:00,70.9,44.0,29.92,SSE,148,0.0,0.0,38,0.00,,,0.00,0,Wunderground v.1.15,2016-07-23 08:06:00,
2016-07-23 03:11:00,71.2,43.6,29.92,SSE,148,0.0,0.0,37,0.00,,,0.00,0,Wunderground v.1.15,2016-07-23 08:11:00,
2016-07-23 03:16:00,71.4,40.0,29.92,SSE,148,0.0,0.0,32,0.00,,,0.00,0,Wunderground v.1.15,2016-07-23 08:16:00,
2016-07-23 03:21:00,71.8,33.0,29.93,SSE,148,0.0,0.0,24,0.00,,,0.00,0,Wunderground v.1.15,2016-07-23 08:21:00,
2016-07-23 03:26:00,72.2,27.6,29.93,SSE,148,0.0,0.0,19,0.00,,,0.00,0,Wunderground v.1.15,2016-07-23 08:26:00,
2016-07-23 03:31:00,72.4,22.1,29.93,SSE,148,0.0,0.0,15,0.00,,,0.00,0,Wunderground v.1.15,2016-07-23 08:31:00,
2016-07-23 03:36:00,72.4,16.9,29.94,SSE,148,0.0,0.0,12,0.00,,,0.00,0,Wunderground v.1.15,2016-07-23 08:36:00,
2016-07-23 03:41:00,72.4,14.9,29.93,SSE,148,0.0,0.0,11,0.00,,,0.00,0,Wunderground v.1.15,2016-07-23 08:41:00,
2016-07-23 03:46:00,72.3,16.8,29.93,SSE,148,0.0,0.0,12,0.00,,,0.00,0,Wunderground v.1.15,2016-07-23 08:46:00,
2016-07-23 03:51:00,72.1,16.6,29.94,SSE,148,0.0,0.0,12,0.00,,,0.00,0,Wunderground v.1.15,2016-07-23 08:51:00,
2016-07-23 03:56:00,71.9,16.5,29.93,SSE,148,0.0,0.0,12,0.00,,,0.00,0,Wunderground v.1.15,2016-07-23 08:56:00,
2016-07-23 04:01:00,71.8,18.3,29.93,SSE,148,0.0,0.0,13,0.00,,,0.00,0,Wunderground v.1.15,2016-07-23 09:01:00,
2016-07-23 04:06:00,71.7,19.9,29.93,SSE,148,0.0,0.0,14,0.00,,,0.00,0,Wunderground v.1.15,2016-07-23 09:06:00,
2016-07-23 04:11:00,71.7,23.1,29.93,SSE,148,0.0,0.0,16,0.00,,,0.00,0,Wunderground v.1.15,2016-07-23 09:11:00,
2016-07-23 04:16:00,71.7,24.5,29.94,SSE,148,0.0,0.0,17,0.00,,,0.00,0,Wunderground v.1.15,2016-07-23 09:16:00,
2016-07-23 04:21:00,71.8,27.3,29.94,SSE,148,0.0,0.0,19,0.00,,,0.00,0,Wunderground v.1.15,2016-07-23 09:21:00,
2016-07-23 04:26:00,71.8,29.7,29.94,SSE,148,0.0,0.0,21,0.00,,,0.00,0,Wunderground v.1.15,2016-07-23 09:26:00,
2016-07-23 04:31:00,71.9,29.8,29.94,SSE,148,0.0,0.0,21,0.00,,,0.00,0,Wunderground v.1.15,2016-07-23 09:31:00,
2016-07-23 04:36:00,71.9,29.8,29.94,SSE,148,0.0,0.0,21,0.00,,,0.00,0,Wunderground v.1.15,2016-07-23 09:36:00,
2016-07-23 04:42:00,72.0,31.0,29.93,SSE,148,0.0,0.0,22,0.00,,,0.00,0,Wunderground v.1.15,2016-07-23 09:42:00,
2016-07-23 04:47:00,72.0,31.0,29.94,SSE,148,0.0,0.0,22,0.00,,,0.00,0,Wunderground v.1.15,2016-07-23 09:47:00,
2016-07-23 04:52:00,72.0,31.0,29.94,SSE,148,0.0,0.0,22,0.00,,,0.00,0,Wunderground v.1.15,2016-07-23 09:52:00,
2016-07-23 04:57:00,71.9,31.0,29.94,SSE,148,0.0,0.0,22,0.00,,,0.00,0,Wunderground v.1.15,2016-07-23 09:57:00,
2016-07-23 05:02:00,72.0,33.2,29.94,SSE,148,0.0,0.0,24,0.00,,,0.00,0,Wunderground v.1.15,2016-07-23 10:02:00,
2016-07-23 05:07:00,72.0,33.2,29.93,SSE,148,0.0,0.0,24,0.00,,,0.00,0,Wunderground v.1.15,2016-07-23 10:07:00,
2016-07-23 05:12:00,72.2,35.4,29.94,SSE,148,0.0,0.0,26,0.00,,,0.00,0,Wunderground v.1.15,2016-07-23 10:12:00,
2016-07-23 05:17:00,72.3,35.5,29.93,SSE,148,0.0,0.0,26,0.00,,,0.00,0,Wunderground v.1.15,2016-07-23 10:17:00,
2016-07-23 05:22:00,72.4,36.5,29.93,SSE,148,0.0,0.0,27,0.00,,,0.00,0,Wunderground v.1.15,2016-07-23 10:22:00,
2016-07-23 05:27:00,72.4,35.6,29.94,SSE,148,0.0,0.0,26,0.00,,,0.00,0,Wunderground v.1.15,2016-07-23 10:27:00,
2016-07-23 05:37:00,72.3,36.4,29.93,SSE,148,0.0,0.0,27,0.00,,,0.00,0,Wunderground v.1.15,2016-07-23 10:37:00,
2016-07-23 05:42:00,72.2,35.4,29.93,SSE,148,0.0,0.0,26,0.00,,,0.00,0,Wunderground v.1.15,2016-07-23 10:42:00,
2016-07-23 05:47:00,72.1,35.3,29.93,SSE,148,0.0,0.0,26,0.00,,,0.00,0,Wunderground v.1.15,2016-07-23 10:47:00,
2016-07-23 05:52:00,72.0,36.2,29.92,SSE,148,0.0,0.0,27,0.00,,,0.00,0,Wunderground v.1.15,2016-07-23 10:52:00,
2016-07-23 05:57:00,71.9,37.0,29.93,SSE,148,0.0,0.0,28,0.00,,,0.00,0,Wunderground v.1.15,2016-07-23 10:57:00,
2016-07-23 06:02:00,71.8,37.8,29.92,SSE,147,0.0,0.0,29,0.00,,,0.00,0,Wunderground v.1.15,2016-07-23 11:02:00,
2016-07-23 06:07:00,71.7,38.6,29.92,SSE,148,0.0,0.0,30,0.00,,,0.00,0,Wunderground v.1.15,2016-07-23 11:07:00,
2016-07-23 06:12:00,71.7,40.3,29.92,SSE,147,0.0,0.0,32,0.00,,,0.00,0,Wunderground v.1.15,2016-07-23 11:12:00,
2016-07-23 06:17:00,71.8,40.3,29.91,SSE,148,0.0,0.0,32,0.00,,,0.00,0,Wunderground v.1.15,2016-07-23 11:17:00,
2016-07-23 06:22:00,72.0,43.6,29.91,SSE,148,0.0,0.0,36,0.00,,,0.00,0,Wunderground v.1.15,2016-07-23 11:22:00,
2016-07-23 06:27:00,72.1,44.4,29.91,SSE,148,0.0,0.0,37,0.00,,,0.00,0,Wunderground v.1.15,2016-07-23 11:27:00,
2016-07-23 06:32:00,72.3,45.3,29.91,SSE,148,0.0,0.0,38,0.00,,,0.00,0,Wunderground v.1.15,2016-07-23 11:32:00,
2016-07-23 06:37:00,72.5,51.1,29.91,SE,145,0.0,0.0,47,0.00,,,0.00,0,Wunderground v.1.15,2016-07-23 11:37:00,
2016-07-23 06:42:00,72.8,53.6,29.91,NNE,18,0.0,0.0,51,0.00,,,0.00,0,Wunderground v.1.15,2016-07-23 11:42:00,
2016-07-23 06:47:00,73.0,54.9,29.90,NNE,18,0.0,0.0,53,0.00,,,0.00,0,Wunderground v.1.15,2016-07-23 11:47:00,
2016-07-23 06:52:00,73.1,54.9,29.90,NNE,18,0.0,0.0,53,0.00,,,0.00,0,Wunderground v.1.15,2016-07-23 11:52:00,
2016-07-23 06:57:00,73.2,55.0,29.90,NNE,32,0.0,0.0,53,0.00,,,0.00,0,Wunderground v.1.15,2016-07-23 11:57:00,
2016-07-23 07:02:00,73.2,55.0,29.89,NE,44,0.0,0.0,53,0.00,,,0.00,0,Wunderground v.1.15,2016-07-23 12:02:00,
2016-07-23 07:08:00,73.3,55.1,29.89,NNE,25,0.0,0.0,53,0.00,,,0.00,0,Wunderground v.1.15,2016-07-23 12:08:00,
2016-07-23 07:13:00,73.3,55.6,29.89,NE,44,0.0,0.0,54,0.00,,,0.00,0,Wunderground v.1.15,2016-07-23 12:13:00,
2016-07-23 07:18:00,73.4,56.2,29.89,NE,44,0.0,0.0,55,0.00,,,0.00,0,Wunderground v.1.15,2016-07-23 12:18:00,
2016-07-23 07:23:00,73.5,56.8,29.89,NE,50,0.0,0.0,56,0.00,,,0.00,0,Wunderground v.1.15,2016-07-23 12:23:00,
2016-07-23 07:28:00,73.6,57.4,29.88,NE,37,0.0,0.0,57,0.00,,,0.00,0,Wunderground v.1.15,2016-07-23 12:28:00,
2016-07-23 07:33:00,73.9,58.2,29.88,NE,40,0.0,0.0,58,0.00,,,0.00,0,Wunderground v.1.15,2016-07-23 12:33:00,
2016-07-23 07:38:00,74.1,59.3,29.88,NE,40,0.0,0.0,60,0.00,,,0.00,0,Wunderground v.1.15,2016-07-23 12:38:00,
2016-07-23 07:43:00,74.2,59.4,29.88,NE,36,0.0,0.0,60,0.00,,,0.00,0,Wunderground v.1.15,2016-07-23 12:43:00,
2016-07-23 07:48:00,74.4,60.5,29.88,SE,143,0.0,0.0,62,0.00,,,0.00,0,Wunderground v.1.15,2016-07-23 12:48:00,
2016-07-23 07:53:00,74.6,61.6,29.88,SE,133,0.0,0.0,64,0.00,,,0.00,0,Wunderground v.1.15,2016-07-23 12:53:00,
2016-07-23 07:58:00,74.9,62.3,29.88,North,9,0.0,0.0,65,0.00,,,0.00,0,Wunderground v.1.15,2016-07-23 12:58:00,
2016-07-23 08:03:00,75.1,62.5,29.87,ENE,62,0.0,0.0,65,0.00,,,0.00,0,Wunderground v.1.15,2016-07-23 13:03:00,
2016-07-23 08:08:00,75.4,63.2,29.88,NNE,22,0.0,0.0,66,0.00,,,0.00,0,Wunderground v.1.15,2016-07-23 13:08:00,
2016-07-23 08:13:00,75.5,63.3,29.87,NE,38,0.0,0.0,66,0.00,,,0.00,0,Wunderground v.1.15,2016-07-23 13:13:00,
2016-07-23 08:18:00,75.6,63.9,29.87,NNE,15,0.0,0.0,67,0.00,,,0.00,0,Wunderground v.1.15,2016-07-23 13:18:00,
2016-07-23 08:23:00,75.7,64.0,29.86,NNE,17,0.0,0.0,67,0.00,,,0.00,0,Wunderground v.1.15,2016-07-23 13:23:00,
2016-07-23 08:28:00,75.7,63.5,29.86,NNE,20,0.0,0.0,66,0.00,,,0.00,0,Wunderground v.1.15,2016-07-23 13:28:00,
2016-07-23 08:33:00,75.7,63.1,29.85,NE,36,0.0,0.0,65,0.00,,,0.00,0,Wunderground v.1.15,2016-07-23 13:33:00,
2016-07-23 08:43:00,75.9,63.7,29.85,NE,47,0.0,0.0,66,0.00,,,0.00,0,Wunderground v.1.15,2016-07-23 13:43:00,
2016-07-23 08:48:00,76.1,63.9,29.84,NE,36,0.0,0.0,66,0.00,,,0.00,0,Wunderground v.1.15,2016-07-23 13:48:00,
2016-07-23 08:53:00,76.2,64.4,29.84,East,80,0.0,0.0,67,0.00,,,0.00,0,Wunderground v.1.15,2016-07-23 13:53:00,
2016-07-23 08:58:00,76.3,64.1,29.84,NE,36,0.0,0.0,66,0.00,,,0.00,0,Wunderground v.1.15,2016-07-23 13:58:00,
2016-07-23 09:03:00,76.4,64.2,29.85,NE,35,0.0,0.0,66,0.00,,,0.00,0,Wunderground v.1.15,2016-07-23 14:03:00,
2016-07-23 09:09:00,76.4,63.8,29.86,ENE,76,0.0,0.0,65,0.00,,,0.00,0,Wunderground v.1.15,2016-07-23 14:09:00,
2016-07-23 09:14:00,76.5,63.4,29.85,ENE,63,0.0,0.0,64,0.00,,,0.00,0,Wunderground v.1.15,2016-07-23 14:14:00,